Time;durP1;ratioP1;P1;durP2;ratioP2;P2;SDS_P1;SDS_P2;PMS_P1;PMS_P2;Temp;Humidity;BMP_temperature;BMP_pressure;BME280_temperature;BME280_humidity;BME280_pressure;Samples;Min_cycle;Max_cycle;Signal;HPM_P1;HPM_P2
2021/12/06 00:02:02;;;;;;;;;3.50;1.50;;;;;21.87;38.26;101072.88;5012491;28;46195;-74
2021/12/06 00:04:36;;;;;;;;;4.33;2.00;;;;;21.95;38.09;101088.78;5013067;28;45333;-74
2021/12/06 00:07:08;;;;;;;;;2.00;2.00;;;;;21.64;38.44;101050.66;5010794;28;45481;-74
2021/12/06 00:09:34;;;;;;;;;3.50;2.50;;;;;21.92;37.74;101099.72;5010946;28;45295;-74
2021/12/06 00:12:02;;;;;;;;;2.00;1.67;;;;;21.92;38.29;101105.84;5009451;28;46347;-74
2021/12/06 00:14:30;;;;;;;;;1.50;1.50;;;;;21.89;38.25;101102.69;5009499;28;45249;-74
2021/12/06 00:16:58;;;;;;;;;1.00;1.00;;;;;21.92;38.22;101110.31;5008787;28;45268;-74
2021/12/06 00:19:24;;;;;;;;;1.00;1.00;;;;;21.93;37.87;101114.63;5012987;27;45284;-73
2021/12/06 00:21:50;;;;;;;;;2.00;1.00;;;;;21.87;37.94;101109.97;5030193;28;47238;-74
2021/12/06 00:24:15;;;;;;;;;5.25;1.50;;;;;21.87;37.84;101117.91;5030705;28;45494;-74
2021/12/06 00:26:41;;;;;;;;;2.25;1.75;;;;;21.88;37.54;101123.09;5030961;28;45319;-74
2021/12/06 00:29:06;;;;;;;;;1.25;1.25;;;;;21.91;38.06;101133.31;5030812;28;45468;-74
2021/12/06 00:31:33;;;;;;;;;2.50;1.75;;;;;21.91;38.28;101132.50;5031821;27;46251;-74
2021/12/06 00:34:05;;;;;;;;;1.75;1.75;;;;;21.90;37.89;101121.09;5030620;28;46029;-74
2021/12/06 00:36:32;;;;;;;;;1.00;1.00;;;;;21.90;38.12;101136.97;5030550;28;45440;-74
2021/12/06 00:38:59;;;;;;;;;1.00;1.00;;;;;21.81;37.64;101122.91;5030483;28;45423;-74
2021/12/06 00:41:25;;;;;;;;;0.50;0.50;;;;;21.80;38.18;101121.25;5030533;27;46210;-74
2021/12/06 00:43:51;;;;;;;;;2.00;2.00;;;;;21.90;37.78;101133.50;5032559;28;45313;-74
2021/12/06 00:46:18;;;;;;;;;2.00;2.00;;;;;21.88;37.79;101128.38;5031162;28;45486;-74
2021/12/06 00:48:44;;;;;;;;;1.75;0.75;;;;;21.89;37.60;101134.47;5030164;27;45346;-74
2021/12/06 00:51:11;;;;;;;;;2.00;2.00;;;;;21.83;37.68;101125.41;5028744;28;46861;-74
2021/12/06 00:53:37;;;;;;;;;0.75;0.75;;;;;21.88;37.80;101138.97;5030451;28;45470;-74
2021/12/06 00:56:03;;;;;;;;;4.00;2.50;;;;;21.87;38.01;101145.25;5031826;28;45349;-74
2021/12/06 00:58:28;;;;;;;;;3.25;2.25;;;;;21.38;38.03;101068.47;5030093;27;45378;-74
2021/12/06 01:00:55;;;;;;;;;2.00;2.00;;;;;21.75;37.60;101136.84;5030123;28;45726;-74
2021/12/06 01:03:27;;;;;;;;;1.50;1.00;;;;;21.87;38.03;101152.34;5029900;28;45440;-74
2021/12/06 01:05:53;;;;;;;;;1.50;1.50;;;;;21.85;37.92;101155.19;5030491;28;45313;-73
2021/12/06 01:08:19;;;;;;;;;3.00;2.75;;;;;21.69;37.85;101138.34;5014476;28;45248;-74
2021/12/06 01:10:46;;;;;;;;;1.00;1.00;;;;;21.76;37.82;101150.88;5032279;27;46234;-74
2021/12/06 01:13:11;;;;;;;;;1.00;1.00;;;;;21.84;37.74;101164.09;5029940;28;45228;-74
2021/12/06 01:15:38;;;;;;;;;1.75;1.25;;;;;21.82;37.76;101164.28;5029949;28;45509;-74
2021/12/06 01:18:06;;;;;;;;;1.00;1.00;;;;;21.80;37.92;101162.81;5029805;28;45512;-74
2021/12/06 01:20:38;;;;;;;;;1.50;1.00;;;;;21.77;37.50;101173.75;5029856;27;46252;-74
2021/12/06 01:23:07;;;;;;;;;2.00;1.00;;;;;21.73;37.92;101168.78;5030559;28;45624;-74
2021/12/06 01:25:48;;;;;;;;;3.00;1.00;;;;;21.81;38.00;101182.97;5030309;28;45330;-74
2021/12/06 01:41:37;;;;;;;;;2.00;0.00;;;;;21.79;38.05;101187.63;5015793;28;45555;-74
2021/12/06 01:44:19;;;;;;;;;2.00;1.00;;;;;21.78;37.88;101189.44;5031444;28;45279;-74
2021/12/06 01:46:52;;;;;;;;;1.75;1.00;;;;;21.78;37.67;101192.09;5034360;28;45330;-74
2021/12/06 01:49:20;;;;;;;;;1.50;1.00;;;;;21.77;37.92;101189.63;5033409;28;45572;-74
2021/12/06 01:51:46;;;;;;;;;1.25;1.25;;;;;21.76;38.04;101186.16;5032625;27;46341;-74
2021/12/06 01:54:14;;;;;;;;;0.50;0.50;;;;;21.77;37.54;101190.47;5032581;28;45443;-74
2021/12/06 01:56:40;;;;;;;;;1.50;1.00;;;;;21.77;37.96;101198.41;5032909;28;45454;-74
2021/12/06 01:59:07;;;;;;;;;2.00;1.33;;;;;21.77;37.82;101198.41;5032785;27;45463;-74
2021/12/06 02:01:33;;;;;;;;;1.00;1.00;;;;;21.65;37.95;101189.97;5034490;28;46337;-74
2021/12/06 02:04:00;;;;;;;;;3.00;1.00;;;;;21.74;37.54;101194.28;5032788;27;45469;-74
2021/12/06 02:06:25;;;;;;;;;0.67;0.67;;;;;21.74;37.83;101201.38;5014799;28;45455;-74
2021/12/06 02:08:51;;;;;;;;;1.33;1.33;;;;;21.69;38.10;101186.00;5100461;27;45518;-74
2021/12/06 02:11:16;;;;;;;;;2.00;2.00;;;;;21.77;37.51;101211.66;5032379;28;46159;-74
2021/12/06 02:13:50;;;;;;;;;4.25;1.00;;;;;21.69;37.96;101196.59;5034550;28;45450;-74
2021/12/06 02:16:19;;;;;;;;;1.00;1.00;;;;;21.61;37.75;101192.16;5032563;28;46342;-74
2021/12/06 02:18:50;;;;;;;;;2.00;1.00;;;;;21.76;37.58;101212.63;5032646;27;45445;-74
2021/12/06 02:21:29;;;;;;;;;2.00;1.00;;;;;21.74;37.55;101212.81;5031948;27;46953;-74
2021/12/06 02:23:56;;;;;;;;;0.75;0.75;;;;;21.77;38.06;101219.59;5031319;28;45458;-74
2021/12/06 02:26:23;;;;;;;;;1.00;1.00;;;;;21.76;37.36;101215.28;5032514;28;45435;-74
2021/12/06 02:28:49;;;;;;;;;2.00;2.00;;;;;21.74;37.67;101206.69;5035061;28;45401;-74
2021/12/06 02:31:17;;;;;;;;;2.25;1.25;;;;;21.74;38.09;101206.69;5029744;27;45298;-74
2021/12/06 02:33:45;;;;;;;;;0.33;0.33;;;;;21.74;37.54;101201.38;5031933;28;45334;-74
2021/12/06 02:36:11;;;;;;;;;4.50;2.00;;;;;21.74;37.92;101211.97;5032207;27;45500;-74
2021/12/06 02:38:37;;;;;;;;;1.00;1.00;;;;;21.74;37.42;101215.47;5032083;27;45350;-73
2021/12/06 02:41:02;;;;;;;;;2.33;1.00;;;;;21.72;37.76;101220.09;5032796;28;45917;-74
2021/12/06 02:43:28;;;;;;;;;0.75;0.75;;;;;21.73;37.83;101213.78;5033817;28;45481;-74
2021/12/06 02:45:53;;;;;;;;;1.00;1.00;;;;;21.66;37.79;101196.09;5031899;28;45227;-74
2021/12/06 02:48:19;;;;;;;;;3.50;1.00;;;;;21.73;37.54;101205.84;5030693;28;45414;-74
2021/12/06 02:50:51;;;;;;;;;1.00;1.00;;;;;21.72;37.55;101196.28;5032206;28;45474;-73
2021/12/06 02:53:19;;;;;;;;;1.00;1.00;;;;;21.72;37.85;101193.63;5031658;28;45583;-74
2021/12/06 02:55:51;;;;;;;;;0.75;0.75;;;;;21.50;37.61;101155.44;5037016;27;45225;-74
2021/12/06 02:58:43;;;;;;;;;1.00;1.00;;;;;21.72;37.43;101193.63;5033158;28;45532;-74
2021/12/06 03:01:22;;;;;;;;;0.75;0.75;;;;;21.69;37.78;101188.66;5031187;28;45516;-74
2021/12/06 03:03:48;;;;;;;;;1.25;0.75;;;;;21.70;37.52;101198.25;5031883;27;45494;-74
2021/12/06 03:06:14;;;;;;;;;2.00;0.33;;;;;21.69;37.71;101187.84;5026882;27;45426;-74
2021/12/06 03:08:46;;;;;;;;;1.00;1.00;;;;;21.67;37.35;101190.66;5032351;28;45476;-73
2021/12/06 03:11:17;;;;;;;;;1.00;0.00;;;;;21.70;38.08;101203.53;5031661;28;46113;-74
2021/12/06 03:13:43;;;;;;;;;3.67;1.00;;;;;21.53;37.66;101178.94;5033544;28;45291;-73
2021/12/06 03:16:09;;;;;;;;;2.25;1.75;;;;;21.70;37.83;101208.03;5031720;27;45566;-74
2021/12/06 03:18:35;;;;;;;;;1.00;1.00;;;;;21.70;37.86;101219.44;5031713;27;45532;-74
2021/12/06 03:21:01;;;;;;;;;1.00;1.00;;;;;21.58;37.61;101205.72;5031338;27;45512;-74
2021/12/06 03:23:27;;;;;;;;;2.00;2.00;;;;;21.68;37.86;101223.25;5031746;28;45472;-74
2021/12/06 03:25:52;;;;;;;;;2.00;0.33;;;;;21.70;37.67;101231.88;5033482;28;45279;-74
2021/12/06 03:28:18;;;;;;;;;1.50;1.50;;;;;21.67;38.02;101227.72;5029666;28;45283;-73
2021/12/06 03:30:43;;;;;;;;;1.67;0.67;;;;;21.69;37.62;101231.03;5031984;28;45419;-73
2021/12/06 03:33:09;;;;;;;;;3.00;1.75;;;;;21.66;37.57;101235.81;5030567;28;45444;-73
2021/12/06 03:35:34;;;;;;;;;1.00;0.00;;;;;21.69;37.71;101243.44;5031664;28;45505;-74
2021/12/06 03:38:00;;;;;;;;;0.00;0.00;;;;;21.68;37.44;101255.84;5032654;28;45355;-73
2021/12/06 03:40:25;;;;;;;;;4.00;0.25;;;;;21.68;37.87;101263.78;5032591;28;47164;-73
2021/12/06 03:42:51;;;;;;;;;1.75;0.75;;;;;21.58;37.57;101260.50;5013441;28;45458;-73
2021/12/06 03:45:16;;;;;;;;;0.75;0.75;;;;;21.69;37.77;101275.22;5031468;28;45723;-74
2021/12/06 03:47:42;;;;;;;;;1.25;1.25;;;;;21.69;37.49;101273.41;5031535;28;45458;-73
2021/12/06 03:50:09;;;;;;;;;2.00;1.00;;;;;21.66;37.40;101268.44;5031491;28;45374;-73
2021/12/06 03:52:35;;;;;;;;;0.00;0.00;;;;;21.62;37.67;101269.78;5033502;28;45543;-74
2021/12/06 03:55:01;;;;;;;;;1.25;0.25;;;;;21.61;38.18;101271.59;5031319;28;45498;-73
2021/12/06 03:57:26;;;;;;;;;2.00;1.00;;;;;21.68;37.41;101281.50;5030990;28;45457;-74
2021/12/06 03:59:53;;;;;;;;;0.00;0.00;;;;;21.68;37.65;101274.38;5031292;28;45397;-74
2021/12/06 04:02:22;;;;;;;;;0.67;0.67;;;;;21.55;37.50;101244.94;5015440;28;45553;-74
2021/12/06 04:04:48;;;;;;;;;0.67;0.67;;;;;21.68;37.54;101260.31;5029353;27;45311;-74
2021/12/06 04:07:14;;;;;;;;;0.67;0.67;;;;;21.60;37.32;101242.63;5029724;28;45385;-74
2021/12/06 04:09:39;;;;;;;;;1.00;1.00;;;;;21.67;37.66;101248.09;5031043;27;45581;-73
2021/12/06 04:12:07;;;;;;;;;0.50;0.50;;;;;21.68;37.50;101234.66;5029441;28;45369;-74
2021/12/06 04:14:33;;;;;;;;;0.75;0.75;;;;;21.67;37.53;101229.53;5031333;27;45302;-74
2021/12/06 04:16:58;;;;;;;;;2.33;1.00;;;;;21.67;37.48;101238.31;5032059;28;45426;-74
2021/12/06 04:19:24;;;;;;;;;1.00;1.00;;;;;21.66;37.61;101241.97;5031894;27;45364;-73
2021/12/06 04:21:50;;;;;;;;;0.00;0.00;;;;;21.57;37.67;101232.38;5030851;28;45468;-74
2021/12/06 04:24:16;;;;;;;;;1.00;1.00;;;;;21.66;37.79;101251.72;5031116;27;45770;-74
2021/12/06 04:26:42;;;;;;;;;1.00;1.00;;;;;21.63;37.58;101253.72;5030750;28;45429;-74
2021/12/06 04:29:09;;;;;;;;;1.00;1.00;;;;;21.57;37.46;101253.56;5030502;28;46132;-74
2021/12/06 04:31:39;;;;;;;;;1.50;1.00;;;;;21.66;37.51;101263.13;5032632;28;45429;-74
2021/12/06 04:34:05;;;;;;;;;1.00;1.00;;;;;21.59;37.81;101249.75;5030668;27;45521;-74
2021/12/06 04:36:30;;;;;;;;;1.00;1.00;;;;;21.51;37.68;101244.47;5030764;28;45498;-74
2021/12/06 04:38:56;;;;;;;;;0.75;0.75;;;;;21.65;37.70;101272.06;5030494;28;45842;-73
2021/12/06 04:41:21;;;;;;;;;0.25;0.25;;;;;21.54;37.48;101251.25;5030468;28;45392;-74
2021/12/06 04:43:47;;;;;;;;;0.67;0.67;;;;;21.59;37.71;101265.66;5028617;28;45381;-74
2021/12/06 04:46:13;;;;;;;;;1.75;1.00;;;;;21.58;37.73;101261.31;5029164;28;45624;-73
2021/12/06 04:48:39;;;;;;;;;0.75;0.75;;;;;21.65;37.23;101260.66;5031955;27;46470;-74
2021/12/06 04:51:05;;;;;;;;;0.75;0.75;;;;;21.56;37.88;101250.09;5029290;27;45438;-74
2021/12/06 04:53:36;;;;;;;;;1.00;1.00;;;;;21.63;37.67;101272.25;5030527;28;45485;-74
2021/12/06 04:56:18;;;;;;;;;0.75;0.75;;;;;21.53;37.57;101268.94;5030906;28;45401;-74
2021/12/06 04:59:09;;;;;;;;;0.00;0.00;;;;;21.64;37.30;101291.63;5031934;28;46928;-73
2021/12/06 05:01:35;;;;;;;;;2.00;1.00;;;;;21.60;37.29;101287.63;5012839;28;46150;-73
2021/12/06 05:04:05;;;;;;;;;1.00;0.00;;;;;21.63;37.24;101296.06;5030555;27;45503;-73
2021/12/06 05:06:33;;;;;;;;;0.00;0.00;;;;;21.61;37.54;101295.41;5030329;27;45276;-74
2021/12/06 05:09:07;;;;;;;;;1.00;1.00;;;;;21.59;37.65;101294.78;5030054;28;45909;-74
2021/12/06 05:11:33;;;;;;;;;0.00;0.00;;;;;21.49;37.81;101278.22;5029035;28;45500;-74
2021/12/06 05:14:02;;;;;;;;;0.00;0.00;;;;;21.62;37.39;101302.34;5031416;28;45303;-75
2021/12/06 05:16:27;;;;;;;;;0.33;0.33;;;;;21.62;37.54;101309.50;5031668;27;45362;-74
2021/12/06 05:18:53;;;;;;;;;0.00;0.00;;;;;21.59;37.23;101292.13;5031601;27;46067;-75
2021/12/06 05:21:18;;;;;;;;;1.67;1.00;;;;;21.62;37.89;101297.06;5033048;27;45412;-74
2021/12/06 05:23:44;;;;;;;;;3.33;2.00;;;;;21.51;37.42;101287.66;5031786;28;45444;-74
2021/12/06 05:26:09;;;;;;;;;2.33;0.67;;;;;21.49;37.51;101283.53;5032901;28;45406;-74
2021/12/06 05:28:41;;;;;;;;;0.00;0.00;;;;;21.58;37.66;101294.91;5035116;28;47161;-74
2021/12/06 05:31:14;;;;;;;;;0.00;0.00;;;;;21.62;37.39;101317.44;5031916;28;45391;-75
2021/12/06 05:33:42;;;;;;;;;0.75;0.00;;;;;21.61;37.48;101332.50;5032767;28;45412;-74
2021/12/06 05:36:07;;;;;;;;;1.50;0.75;;;;;21.61;37.40;101323.72;5032753;28;45476;-74
2021/12/06 05:38:33;;;;;;;;;1.00;1.00;;;;;21.58;37.73;101310.81;5032699;28;46003;-74
2021/12/06 05:40:59;;;;;;;;;2.00;0.00;;;;;21.61;37.21;101316.59;5030035;28;45511;-74
2021/12/06 05:43:25;;;;;;;;;1.25;0.25;;;;;21.61;37.36;101327.19;5028468;28;45403;-73
2021/12/06 05:45:50;;;;;;;;;1.00;1.00;;;;;21.50;37.32;101304.53;5033037;28;45438;-74
2021/12/06 05:48:17;;;;;;;;;0.75;0.00;;;;;21.56;37.43;101312.78;5032548;28;46007;-74
2021/12/06 05:50:45;;;;;;;;;0.50;0.50;;;;;21.63;37.39;101325.22;5032916;28;45251;-74
2021/12/06 05:53:11;;;;;;;;;0.00;0.00;;;;;21.63;37.81;101327.03;5032408;28;45487;-74
2021/12/06 05:55:36;;;;;;;;;2.00;1.00;;;;;21.51;37.26;101314.13;5034687;28;45305;-74
2021/12/06 05:58:04;;;;;;;;;0.00;0.00;;;;;21.62;37.70;101320.88;5032466;28;46116;-74
2021/12/06 06:00:32;;;;;;;;;1.25;1.00;;;;;21.64;37.11;101331.34;5032573;27;45460;-74
2021/12/06 06:02:59;;;;;;;;;0.00;0.00;;;;;21.65;37.01;101335.63;5031188;28;45478;-74
2021/12/06 06:05:27;;;;;;;;;0.00;0.00;;;;;21.61;37.31;101345.72;5032454;28;45419;-74
2021/12/06 06:07:52;;;;;;;;;0.00;0.00;;;;;21.63;37.81;101354.34;5034084;28;46278;-74
2021/12/06 06:10:18;;;;;;;;;1.00;0.00;;;;;21.49;37.62;101323.22;5031287;28;45378;-74
2021/12/06 06:12:43;;;;;;;;;1.33;0.00;;;;;21.29;37.35;101289.94;5032340;28;45397;-74
2021/12/06 06:15:09;;;;;;;;;0.00;0.00;;;;;21.65;37.31;101343.56;5032572;28;45400;-74
2021/12/06 06:17:43;;;;;;;;;2.00;0.25;;;;;21.58;37.08;101324.03;5032244;28;47606;-74
2021/12/06 06:20:30;;;;;;;;;0.75;0.00;;;;;21.64;37.76;101320.75;5032258;28;45517;-74
2021/12/06 06:22:56;;;;;;;;;0.00;0.00;;;;;21.52;37.42;101321.06;5030173;28;45322;-79
2021/12/06 06:25:21;;;;;;;;;2.00;2.00;;;;;21.60;37.40;101333.47;5033191;28;45411;-79
2021/12/06 06:27:47;;;;;;;;;0.33;0.00;;;;;21.66;37.25;101350.53;5031972;28;45459;-73
2021/12/06 06:30:14;;;;;;;;;1.00;1.00;;;;;21.66;37.64;101363.78;5030919;28;45542;-73
2021/12/06 06:32:40;;;;;;;;;0.50;0.00;;;;;21.67;37.27;101370.72;5032481;27;45389;-73
2021/12/06 06:35:06;;;;;;;;;1.75;0.50;;;;;21.66;37.06;101379.66;5032228;27;45475;-74
2021/12/06 06:37:32;;;;;;;;;0.25;0.25;;;;;21.66;37.42;101377.00;5033724;28;45390;-79
2021/12/06 06:39:58;;;;;;;;;0.25;0.25;;;;;21.36;37.54;101321.06;5032090;27;45516;-76
2021/12/06 06:42:24;;;;;;;;;1.00;1.00;;;;;21.65;37.30;101366.59;5030684;28;45280;-78
2021/12/06 06:44:50;;;;;;;;;2.00;0.00;;;;;21.38;37.75;101319.91;5032301;28;45475;-78
2021/12/06 06:47:16;;;;;;;;;1.00;1.00;;;;;21.68;37.68;101358.28;5031527;28;46138;-75
2021/12/06 06:49:42;;;;;;;;;3.50;1.00;;;;;21.67;37.29;101343.41;5033392;28;45475;-72
2021/12/06 06:52:07;;;;;;;;;0.50;0.50;;;;;21.68;37.82;101347.69;5029921;28;45608;-73
2021/12/06 06:54:33;;;;;;;;;1.75;0.00;;;;;21.33;38.11;101289.63;5024619;28;45277;-72
2021/12/06 06:56:58;;;;;;;;;0.75;0.75;;;;;21.69;37.52;101355.50;5027501;27;45595;-71
2021/12/06 06:59:23;;;;;;;;;0.75;0.75;;;;;21.69;38.09;101358.16;5021123;28;45729;-72
2021/12/06 07:01:49;;;;;;;;;2.00;0.75;;;;;21.66;37.67;101358.47;5034085;28;45377;-73
2021/12/06 07:04:14;;;;;;;;;1.00;1.00;;;;;21.70;38.23;101359.78;5029657;28;45344;-72
2021/12/06 07:06:40;;;;;;;;;2.75;0.75;;;;;21.66;37.97;101342.59;5033701;27;47015;-73
2021/12/06 07:09:06;;;;;;;;;0.00;0.00;;;;;21.72;38.10;101351.69;5081804;27;45520;-73
2021/12/06 07:11:32;;;;;;;;;1.00;1.00;;;;;21.67;38.14;101341.59;5068859;27;45406;-74
2021/12/06 07:13:58;;;;;;;;;3.00;0.00;;;;;21.76;38.26;101349.53;5090565;27;45358;-73
2021/12/06 07:16:24;;;;;;;;;2.00;0.00;;;;;21.76;37.90;101354.81;5082245;27;46107;-73
2021/12/06 07:18:49;;;;;;;;;1.00;1.00;;;;;21.77;38.37;101362.63;5081011;27;45238;-74
2021/12/06 07:21:14;;;;;;;;;1.00;1.00;;;;;21.79;37.87;101349.19;5116574;27;45779;-73
2021/12/06 07:23:42;;;;;;;;;1.00;1.00;;;;;21.79;37.82;101350.03;5116225;27;45193;-80
2021/12/06 07:26:10;;;;;;;;;1.00;1.00;;;;;21.81;38.34;101349.84;5114776;27;46224;-72
2021/12/06 07:28:36;;;;;;;;;7.25;6.50;;;;;21.74;36.06;101360.28;5101755;27;45546;-74
2021/12/06 07:31:05;;;;;;;;;7.75;6.25;;;;;21.58;35.71;101353.16;5102722;27;45454;-73
2021/12/06 07:33:35;;;;;;;;;7.25;6.00;;;;;21.49;35.55;101347.06;5102587;27;45526;-75
2021/12/06 07:36:01;;;;;;;;;7.75;6.25;;;;;21.42;36.17;101354.81;5102174;27;46259;-75
2021/12/06 07:38:27;;;;;;;;;4.75;4.75;;;;;21.42;36.44;101357.47;5098826;27;45320;-72
2021/12/06 07:40:54;;;;;;;;;4.75;3.25;;;;;21.45;37.20;101356.31;5100840;27;45335;-75
2021/12/06 07:43:20;;;;;;;;;5.75;2.75;;;;;21.45;36.83;101351.84;5103696;27;45247;-75
2021/12/06 07:45:46;;;;;;;;;2.50;2.25;;;;;21.47;37.19;101346.38;5102851;27;45378;-76
2021/12/06 07:48:12;;;;;;;;;4.00;4.00;;;;;21.31;37.07;101315.44;5102833;27;45405;-75
2021/12/06 07:50:38;;;;;;;;;5.75;3.75;;;;;21.06;37.08;101274.72;5100187;27;45356;-76
2021/12/06 07:53:04;;;;;;;;;3.00;3.00;;;;;21.49;37.30;101344.41;5099986;27;45377;-76
2021/12/06 07:55:33;;;;;;;;;4.00;4.00;;;;;21.40;37.25;101340.91;5102106;27;47306;-74
2021/12/06 07:57:59;;;;;;;;;3.50;2.00;;;;;21.48;37.16;101356.81;5102570;27;45472;-73
2021/12/06 08:00:27;;;;;;;;;3.75;2.25;;;;;21.51;37.28;101353.84;5102751;27;45484;-76
2021/12/06 08:02:53;;;;;;;;;2.50;2.25;;;;;21.36;37.14;101323.72;5102385;27;45577;-75
2021/12/06 08:05:30;;;;;;;;;3.00;3.00;;;;;;;;5079529;27;47111;-76
2021/12/06 08:08:15;;;;;;;;;4.50;4.00;;;;;21.55;37.59;101345.53;5097169;27;45550;-75
2021/12/06 08:10:45;;;;;;;;;6.00;3.00;;;;;21.55;37.11;101358.78;5097044;27;45573;-73
2021/12/06 08:13:13;;;;;;;;;2.50;2.50;;;;;21.55;37.05;101338.44;5109725;27;45466;-76
2021/12/06 08:15:39;;;;;;;;;3.50;2.00;;;;;21.51;37.31;101323.88;5110296;27;46198;-75
2021/12/06 08:18:05;;;;;;;;;2.00;2.00;;;;;21.57;37.03;101322.41;5111553;27;45366;-77
2021/12/06 08:20:32;;;;;;;;;2.00;1.75;;;;;21.46;37.44;101305.03;5059367;27;45342;-75
2021/12/06 08:22:58;;;;;;;;;1.00;1.00;;;;;21.46;37.69;101307.66;5032018;28;45636;-75
2021/12/06 08:25:23;;;;;;;;;1.00;1.00;;;;;21.54;37.51;101322.72;5031452;28;46198;-76
2021/12/06 08:27:49;;;;;;;;;3.75;3.00;;;;;21.59;37.50;101341.59;5030637;28;45387;-76
2021/12/06 08:30:21;;;;;;;;;1.25;1.25;;;;;21.59;37.21;101341.59;5030897;27;45252;-75
2021/12/06 08:32:52;;;;;;;;;3.50;3.50;;;;;21.59;37.21;101338.94;5030395;28;45655;-76
2021/12/06 08:35:17;;;;;;;;;2.75;2.75;;;;;21.31;37.38;101291.63;5030614;28;46378;-75
2021/12/06 08:37:43;;;;;;;;;3.75;2.75;;;;;21.59;37.78;101328.34;5032573;28;45231;-75
2021/12/06 08:40:09;;;;;;;;;2.75;2.75;;;;;21.55;37.60;101325.19;5029103;28;45576;-76
2021/12/06 08:42:35;;;;;;;;;2.25;2.25;;;;;21.60;37.62;101332.63;5030407;28;45524;-75
2021/12/06 08:45:00;;;;;;;;;4.25;2.25;;;;;21.30;37.47;101272.25;5029237;28;45498;-76
2021/12/06 08:47:26;;;;;;;;;2.00;2.00;;;;;21.49;37.48;101294.09;5030320;28;45559;-75
2021/12/06 08:49:51;;;;;;;;;3.75;2.50;;;;;21.61;37.70;101308.66;5032726;28;45461;-76
2021/12/06 08:52:17;;;;;;;;;3.00;3.00;;;;;21.61;37.41;101305.19;5029960;28;45362;-75
2021/12/06 08:54:43;;;;;;;;;3.50;2.75;;;;;21.61;37.33;101299.88;5028294;28;45521;-75
2021/12/06 08:57:09;;;;;;;;;2.00;2.00;;;;;21.62;37.72;101299.72;5030212;28;45511;-75
2021/12/06 08:59:35;;;;;;;;;1.75;1.75;;;;;21.62;37.63;101304.19;5030572;27;45494;-75
2021/12/06 09:02:01;;;;;;;;;3.75;3.75;;;;;21.62;37.48;101306.84;5031140;28;45284;-76
2021/12/06 09:04:31;;;;;;;;;2.50;1.25;;;;;21.62;37.58;101304.19;5031428;28;46807;-76
2021/12/06 09:06:58;;;;;;;;;3.50;3.50;;;;;21.55;37.95;101289.94;5029875;28;45483;-75
2021/12/06 09:09:27;;;;;;;;;3.25;3.25;;;;;21.62;37.55;101307.66;5030090;28;45422;-76
2021/12/06 09:11:53;;;;;;;;;3.75;1.75;;;;;21.61;37.44;101300.72;5030100;28;45523;-75
2021/12/06 09:14:18;;;;;;;;;3.25;2.00;;;;;21.60;37.49;101299.06;5030048;28;45308;-76
2021/12/06 09:16:45;;;;;;;;;4.75;2.00;;;;;21.61;37.54;101295.41;5031722;28;45457;-76
2021/12/06 09:19:13;;;;;;;;;2.00;2.00;;;;;21.60;37.73;101299.06;5028892;28;45357;-75
2021/12/06 09:21:39;;;;;;;;;3.50;3.50;;;;;21.54;37.66;101289.16;5029655;27;45461;-76
2021/12/06 09:24:08;;;;;;;;;2.00;2.00;;;;;21.55;37.82;101295.25;5030318;28;47041;-75
2021/12/06 09:26:34;;;;;;;;;1.75;1.75;;;;;21.54;37.80;101296.25;5029945;28;45416;-75
2021/12/06 09:29:00;;;;;;;;;2.25;2.25;;;;;21.61;37.45;101307.81;5031044;28;45355;-75
2021/12/06 09:31:25;;;;;;;;;2.00;2.00;;;;;21.55;37.47;101305.84;5030604;28;45582;-75
2021/12/06 09:33:51;;;;;;;;;2.50;2.50;;;;;21.49;37.54;101294.09;5029366;28;46938;-76
2021/12/06 09:36:18;;;;;;;;;4.75;3.75;;;;;21.60;37.61;101298.22;5011824;27;47599;-76
2021/12/06 09:38:45;;;;;;;;;4.00;2.50;;;;;21.60;37.34;101282.34;5029867;28;45498;-75
2021/12/06 09:41:18;;;;;;;;;3.00;3.00;;;;;21.61;37.44;101276.88;5011402;27;45684;-76
2021/12/06 09:43:44;;;;;;;;;4.50;2.25;;;;;21.59;38.04;101270.94;5031660;27;46340;-76
2021/12/06 09:46:11;;;;;;;;;4.75;3.50;;;;;21.60;37.99;101277.03;5028887;28;45201;-73
2021/12/06 09:48:39;;;;;;;;;3.75;2.00;;;;;21.60;37.92;101284.97;5011953;27;45494;-76
2021/12/06 09:51:11;;;;;;;;;2.00;2.00;;;;;21.58;37.49;101284.31;5029460;28;45531;-76
2021/12/06 09:53:40;;;;;;;;;3.00;3.00;;;;;21.54;37.63;101272.41;5028950;27;46185;-76
2021/12/06 09:56:13;;;;;;;;;3.25;3.25;;;;;21.53;37.81;101261.00;5030372;28;45671;-75
2021/12/06 09:58:39;;;;;;;;;3.00;3.00;;;;;21.35;37.69;101224.13;5030400;28;45329;-76
2021/12/06 10:01:10;;;;;;;;;4.00;4.00;;;;;21.56;37.65;101260.69;5028956;28;45467;-75
2021/12/06 10:03:36;;;;;;;;;2.25;2.25;;;;;21.59;37.53;101251.56;5027127;28;45573;-76
2021/12/06 10:06:04;;;;;;;;;5.50;2.75;;;;;21.59;37.68;101262.16;5032315;28;45450;-73
2021/12/06 10:08:32;;;;;;;;;2.50;1.75;;;;;21.58;37.78;101258.69;5032836;28;45461;-76
2021/12/06 10:10:58;;;;;;;;;4.50;3.00;;;;;21.52;37.59;101238.16;5033903;28;45356;-76
2021/12/06 10:13:24;;;;;;;;;5.25;2.50;;;;;21.44;37.56;101219.66;5032948;28;46213;-76
2021/12/06 10:15:51;;;;;;;;;3.50;2.00;;;;;21.56;37.92;101230.72;5031939;28;45258;-73
2021/12/06 10:18:16;;;;;;;;;2.75;2.75;;;;;21.55;37.18;101243.13;5032631;27;45691;-76
2021/12/06 10:20:43;;;;;;;;;4.00;2.00;;;;;21.58;37.43;101248.09;5032228;27;45391;-76
2021/12/06 10:23:09;;;;;;;;;4.00;4.00;;;;;21.59;37.39;101257.69;5032394;28;45946;-77
2021/12/06 10:25:42;;;;;;;;;1.75;1.75;;;;;21.60;37.61;101250.56;5034256;27;45371;-75
2021/12/06 10:28:08;;;;;;;;;1.50;1.25;;;;;21.59;37.43;101255.06;5032411;28;45234;-75
2021/12/06 10:30:41;;;;;;;;;2.50;2.50;;;;;21.55;37.67;101242.28;5031958;28;45597;-76
2021/12/06 10:33:14;;;;;;;;;3.75;3.75;;;;;21.60;37.29;101246.09;5032053;28;46330;-76
2021/12/06 10:35:43;;;;;;;;;4.25;3.75;;;;;21.57;37.74;101238.47;5030667;27;45524;-75
2021/12/06 10:38:09;;;;;;;;;3.50;2.00;;;;;21.54;37.60;101225.59;5032112;28;45557;-76
2021/12/06 10:40:40;;;;;;;;;6.00;4.00;;;;;21.59;37.42;101233.03;5032374;28;45563;-75
2021/12/06 10:43:10;;;;;;;;;6.75;3.00;;;;;21.58;37.91;101224.25;5030344;27;46025;-76
2021/12/06 10:45:42;;;;;;;;;2.75;2.25;;;;;21.58;37.56;101224.25;5031745;27;45431;-75
2021/12/06 10:48:26;;;;;;;;;2.25;2.25;;;;;21.55;37.96;101223.75;5031935;28;45417;-75
2021/12/06 10:50:51;;;;;;;;;2.50;2.00;;;;;21.58;37.54;101234.84;5032223;28;45432;-76
2021/12/06 10:53:20;;;;;;;;;2.25;2.00;;;;;21.59;37.47;101233.03;5031731;28;46521;-75
2021/12/06 10:55:49;;;;;;;;;4.00;3.00;;;;;21.59;37.71;101219.78;5034071;28;45603;-76
2021/12/06 10:58:18;;;;;;;;;4.25;2.75;;;;;21.59;37.50;101222.44;5031623;27;45573;-76
2021/12/06 11:00:46;;;;;;;;;6.00;3.00;;;;;21.47;37.70;101193.66;5031819;28;45501;-75
2021/12/06 11:03:31;;;;;;;;;4.50;2.25;;;;;21.59;37.72;101203.91;5031487;28;46252;-75
2021/12/06 11:06:09;;;;;;;;;3.00;3.00;;;;;21.50;37.48;101177.44;5031784;27;45439;-75
2021/12/06 11:08:36;;;;;;;;;2.75;2.00;;;;;21.52;37.39;101178.09;5031912;28;45348;-76
2021/12/06 11:11:06;;;;;;;;;5.25;4.00;;;;;21.57;37.24;101182.88;5032854;28;45480;-76
2021/12/06 11:13:38;;;;;;;;;3.00;3.00;;;;;21.57;37.23;101172.28;5033131;28;47043;-76
2021/12/06 11:16:05;;;;;;;;;3.25;3.25;;;;;21.57;37.38;101158.25;5029450;27;45594;-76
2021/12/06 11:19:02;;;;;;;;;4.50;3.00;;;;;21.56;37.50;101149.47;5031774;28;45379;-76
2021/12/06 11:21:34;;;;;;;;;4.00;3.50;;;;;21.50;37.63;101139.56;5025966;27;45448;-75
2021/12/06 11:24:00;;;;;;;;;2.00;2.00;;;;;21.56;37.72;101146.81;5009980;28;46104;-72
2021/12/06 11:26:26;;;;;;;;;3.50;2.00;;;;;21.56;37.56;101141.53;5011703;28;45562;-76
2021/12/06 11:28:51;;;;;;;;;3.00;3.00;;;;;21.24;37.62;101101.72;5013679;28;45342;-76
2021/12/06 11:31:17;;;;;;;;;2.50;2.50;;;;;21.52;37.44;101141.03;5010762;28;45300;-75
2021/12/06 11:33:57;;;;;;;;;2.00;2.00;;;;;21.56;37.60;101130.09;5011365;28;47613;-76
2021/12/06 11:36:23;;;;;;;;;2.25;1.50;;;;;21.56;37.34;101130.94;5006533;27;45400;-76
2021/12/06 11:38:50;;;;;;;;;2.25;2.25;;;;;21.57;37.47;101129.13;4998245;28;45589;-76
2021/12/06 11:41:15;;;;;;;;;3.00;3.00;;;;;;;;4994106;28;45633;-76
2021/12/06 11:43:41;;;;;;;;;4.25;3.00;;;;;21.40;37.50;101078.88;4997925;28;45432;-76